x

Venice, Fl (venf1) Weather Station

11:00am - Mon 23rd Oct 2017 All times are EDT. -4 hours from GMT.

  • Wind
    21mph, 23mph gusts
  • Sea Temp 81°f
  • Air Temp 82°f
  • Sea Pressure 1016.8mb
  • Venice, Fl
  • Venice, Fl

More Historic Weather Station data

Upgrade to MSW Pro to gain access to the past 30 days of data for over 8000 Wavebouys and Weather Stations around the globe.

Join

Comparision Forecast

View Surf forecast
   
Mon 10/23 11:00am 21 23 mph 1016.8mb 81f 82f
10:00am 14 16 mph 1017mb 80f 80f
9:00am 10 15 mph 1016.8mb 80f 77f
8:00am 8 11 mph 1017mb 80f 76f
7:00am 5 7 mph 1017.1mb 80f 75f
6:00am 5 6 mph 1017mb 80f 76f
5:00am 7 8 mph 1016.7mb 80f 77f
4:00am 7 8 mph 1016.9mb 81f 77f
3:00am 8 11 mph 1017.1mb 81f 78f
2:00am 8 10 mph 1017.7mb 81f 78f
1:00am 8 9 mph 1018.1mb 81f 78f
12:00am 7 9 mph 1018.7mb 81f 79f
Sun 10/22 11:00pm 8 9 mph 1018.4mb 81f 80f
10:00pm 6 7 mph 1018.1mb 81f 80f
9:00pm 7 8 mph 1017.9mb 81f 80f
8:00pm 5 6 mph 1017.5mb 81f 81f
7:00pm 5 6 mph 1017.2mb 81f 82f
6:00pm 7 8 mph 1017.1mb 81f 83f
5:00pm 7 8 mph 1016.9mb 81f 86f
4:00pm 8 10 mph 1017.1mb 81f 86f
3:00pm 13 15 mph 1017.5mb 81f 86f
2:00pm 13 16 mph 1018mb 81f 86f
1:00pm 15 20 mph 1018.6mb 81f 86f
12:00pm 18 22 mph 1019.1mb 80f 85f
11:00am 10 14 mph 1019.5mb 80f 82f
10:00am 9 11 mph 1019.6mb 80f 79f
9:00am 8 10 mph 1019.1mb 80f 77f
8:00am 7 9 mph 1018.6mb 80f 75f
7:00am 9 11 mph 1018.1mb 80f 75f
6:00am 8 11 mph 1017.6mb 80f 75f
5:00am 10 13 mph 1017.3mb 81f 75f
4:00am 8 10 mph 1017.4mb 81f 75f
3:00am 8 10 mph 1017.8mb 81f 75f
2:00am 9 11 mph 1018.3mb 80f 75f
1:00am 9 11 mph 1018.8mb 81f 75f
12:00am 9 13 mph 1019.3mb 81f 76f
Sat 10/21 11:00pm 10 14 mph 1019.7mb 81f 77f
10:00pm 9 13 mph 1019.6mb 81f 78f
9:00pm 9 14 mph 1019mb 81f 79f
8:00pm 9 13 mph 1018.7mb 81f 80f
7:00pm 11 14 mph 1018.3mb 81f 81f
6:00pm 16 22 mph 1017.8mb 81f 83f
5:00pm 18 26 mph 1017.6mb 81f 84f
4:00pm 11 16 mph 1017.5mb 81f 84f
3:00pm 14 17 mph 1017.5mb 81f 85f
2:00pm 10 15 mph 1018mb 81f 85f
1:00pm 18 24 mph 1018.7mb 81f 84f
12:00pm 17 22 mph 1019.5mb 81f 83f
11:00am 16 22 mph 1019.5mb 80f 82f
10:00am 14 20 mph 1019.4mb 80f 79f
9:00am 10 14 mph 1019.2mb 80f 76f
8:00am 9 11 mph 1018.2mb 80f 73f
7:00am 8 10 mph 1017.7mb 81f 73f
6:00am 8 11 mph 1017.3mb 81f 73f
5:00am 10 15 mph 1016.9mb 81f 73f
4:00am 7 10 mph 1017.2mb 81f 73f
3:00am 9 11 mph 1017.2mb 81f 73f
2:00am 9 13 mph 1017.8mb 81f 74f
1:00am 10 14 mph 1018.1mb 81f 75f
12:00am 10 13 mph 1018.6mb 81f 75f
Fri 10/20 11:00pm 8 10 mph 1018.7mb 81f 76f
10:00pm 10 13 mph 1018.4mb 81f 77f
9:00pm 10 15 mph 1018mb 81f 78f
8:00pm 8 9 mph 1017.4mb 81f 79f
7:00pm 13 16 mph 1016.9mb 82f 79f
6:00pm 8 13 mph 1016.1mb 82f 84f
5:00pm 13 15 mph 1016mb 82f 85f
4:00pm 14 18 mph 1016.2mb 82f 85f
3:00pm 14 20 mph 1016.5mb 82f 85f
2:00pm 15 20 mph 1017.2mb 82f 85f
1:00pm 16 22 mph 1018.2mb 81f 84f
12:00pm 10 18 mph 1018.7mb 81f 83f
10:00am 15 20 mph 1019mb 81f 78f
9:00am 13 16 mph 1019mb 81f 76f
8:00am 8 11 mph 1018.7mb 81f 73f
7:00am 7 9 mph 1018.4mb 81f 72f
6:00am 8 11 mph 1018.1mb 81f 72f
5:00am 7 9 mph 1018mb 81f 73f
4:00am 7 9 mph 1017.8mb 81f 73f
3:00am 10 13 mph 1018mb 81f 74f
2:00am 7 11 mph 1018.5mb 82f 74f
1:00am 8 10 mph 1018.7mb 82f 75f
12:00am 7 9 mph 1018.8mb 82f 76f
Thu 10/19 11:00pm 9 13 mph 1018.6mb 82f 77f
10:00pm 10 14 mph 1018mb 82f 78f
9:00pm 11 15 mph 1017.5mb 82f 80f
8:00pm 10 14 mph 1017.1mb 82f 81f
7:00pm 14 17 mph 1016.3mb 82f 83f
6:00pm 15 17 mph 1015.9mb 82f 85f
5:00pm 14 18 mph 1015.7mb 82f 86f